Time;durP1;ratioP1;P1;durP2;ratioP2;P2;SDS_P1;SDS_P2;PMS_P1;PMS_P2;Temp;Humidity;BMP_temperature;BMP_pressure;BME280_temperature;BME280_humidity;BME280_pressure;Samples;Min_cycle;Max_cycle;Signal;HPM_P1;HPM_P2
2022/09/14 00:01:56;;;;;;;8.82;6.97;;;28.40;99.90;;;;;;4142115;28;20694;-72
2022/09/14 00:04:03;;;;;;;12.38;7.50;;;28.40;99.90;;;;;;4142062;28;20064;-72
2022/09/14 00:06:11;;;;;;;11.05;7.43;;;28.40;99.90;;;;;;4142692;28;20050;-70
2022/09/14 00:08:22;;;;;;;9.82;7.03;;;28.50;99.90;;;;;;4142644;28;20093;-72
2022/09/14 00:10:37;;;;;;;9.05;7.05;;;28.50;99.90;;;;;;4142437;28;20041;-72
2022/09/14 00:12:44;;;;;;;9.10;6.63;;;28.60;99.90;;;;;;4143532;28;20124;-71
2022/09/14 00:14:48;;;;;;;10.85;7.22;;;28.60;99.90;;;;;;4160857;28;20045;-74
2022/09/14 00:16:54;;;;;;;11.50;6.55;;;28.60;99.90;;;;;;4145130;28;20053;-73
2022/09/14 00:19:22;;;;;;;9.40;6.43;;;28.70;99.90;;;;;;4145566;28;20397;-72
2022/09/14 00:21:27;;;;;;;10.80;7.00;;;28.70;99.90;;;;;;4160708;28;20137;-71
2022/09/14 00:23:34;;;;;;;17.15;7.32;;;28.80;99.90;;;;;;4145213;28;20417;-73
2022/09/14 00:25:40;;;;;;;9.52;6.93;;;28.70;99.90;;;;;;4145143;28;20100;-72
2022/09/14 00:27:47;;;;;;;10.00;6.40;;;28.80;99.90;;;;;;4145591;28;20050;-71
2022/09/14 00:29:54;;;;;;;6.90;5.43;;;28.90;99.90;;;;;;4159992;28;20045;-72
2022/09/14 00:32:01;;;;;;;7.05;5.93;;;28.90;99.90;;;;;;4145367;28;20050;-72
2022/09/14 00:34:08;;;;;;;9.95;6.85;;;29.00;99.90;;;;;;4144648;28;20141;-74
2022/09/14 00:36:15;;;;;;;10.40;5.65;;;29.00;99.90;;;;;;4145182;28;20050;-72
2022/09/14 00:38:19;;;;;;;15.13;6.70;;;29.10;99.90;;;;;;4144276;28;20089;-72
2022/09/14 00:40:24;;;;;;;9.93;6.22;;;29.00;99.90;;;;;;4145211;28;20068;-72
2022/09/14 00:42:31;;;;;;;9.38;6.25;;;29.10;99.90;;;;;;4145656;28;20046;-73
2022/09/14 00:44:58;;;;;;;11.40;7.13;;;29.00;99.90;;;;;;4145939;28;20049;-74
2022/09/14 00:47:02;;;;;;;8.32;6.35;;;29.00;99.90;;;;;;4145411;28;20104;-73
2022/09/14 00:49:17;;;;;;;9.52;6.50;;;29.00;99.90;;;;;;4143671;28;20061;-75
2022/09/14 00:51:24;;;;;;;9.98;6.55;;;29.00;99.90;;;;;;4143356;28;20045;-72
2022/09/14 00:53:29;;;;;;;9.50;6.35;;;28.90;99.90;;;;;;4145093;28;20046;-75
2022/09/14 00:55:36;;;;;;;6.60;6.00;;;29.00;99.90;;;;;;4127915;28;20062;-75
2022/09/14 00:57:48;;;;;;;8.15;5.95;;;29.00;99.90;;;;;;4128606;28;20232;-75
2022/09/14 00:59:53;;;;;;;8.75;6.10;;;29.10;99.90;;;;;;4138905;28;20050;-75
2022/09/14 01:02:01;;;;;;;9.38;5.68;;;29.20;99.90;;;;;;4146660;28;20050;-74
2022/09/14 01:04:08;;;;;;;7.60;5.18;;;29.30;99.90;;;;;;4147468;28;20041;-74
2022/09/14 01:06:42;;;;;;;7.93;5.05;;;29.30;99.90;;;;;;4147645;28;20108;-74
2022/09/14 01:09:27;;;;;;;10.33;5.30;;;29.40;99.90;;;;;;4148491;28;20046;-75
2022/09/14 01:11:50;;;;;;;9.52;4.97;;;29.50;99.90;;;;;;4116262;28;20144;-75
2022/09/14 01:14:20;;;;;;;8.25;4.53;;;29.60;99.90;;;;;;4123253;28;20145;-74
2022/09/14 01:16:47;;;;;;;6.63;5.00;;;29.70;99.90;;;;;;4139218;28;20108;-74
2022/09/14 01:19:05;;;;;;;6.38;4.80;;;29.60;99.90;;;;;;4141436;28;20054;-74
2022/09/14 01:21:33;;;;;;;6.22;4.90;;;29.60;99.90;;;;;;4154402;28;20075;-74
2022/09/14 01:23:56;;;;;;;7.78;5.57;;;29.60;99.90;;;;;;4142639;28;20096;-74
2022/09/14 01:26:45;;;;;;;7.07;4.80;;;29.70;99.90;;;;;;4143924;28;20141;-74
2022/09/14 01:29:15;;;;;;;6.40;5.00;;;29.80;99.90;;;;;;4147329;28;20076;-74
2022/09/14 01:31:50;;;;;;;8.18;5.50;;;29.90;99.90;;;;;;4150127;28;20054;-75
2022/09/14 01:34:24;;;;;;;9.45;4.85;;;29.90;99.90;;;;;;4141473;28;20165;-74
2022/09/14 01:36:34;;;;;;;8.48;5.15;;;30.10;99.90;;;;;;4144497;28;20522;-75
2022/09/14 01:38:54;;;;;;;5.93;4.70;;;30.20;99.90;;;;;;4161977;28;20049;-74
2022/09/14 01:40:59;;;;;;;5.95;4.28;;;30.30;99.90;;;;;;4146570;28;20054;-74
2022/09/14 01:43:33;;;;;;;6.85;4.65;;;30.30;99.90;;;;;;4144467;28;20058;-74
2022/09/14 01:45:41;;;;;;;5.30;4.40;;;30.40;99.90;;;;;;4144506;28;20173;-72
2022/09/14 01:47:48;;;;;;;6.80;4.15;;;30.50;99.90;;;;;;4145047;28;20056;-74
2022/09/14 01:50:07;;;;;;;6.07;4.45;;;30.60;99.90;;;;;;4143236;28;20042;-74
2022/09/14 01:52:33;;;;;;;8.63;4.22;;;30.50;99.90;;;;;;4146346;28;20045;-74
2022/09/14 01:54:49;;;;;;;7.57;4.70;;;30.60;99.90;;;;;;4161351;28;20530;-73
2022/09/14 01:57:09;;;;;;;5.28;4.13;;;30.70;99.90;;;;;;4146325;28;20058;-73
2022/09/14 01:59:17;;;;;;;7.90;4.65;;;30.70;99.90;;;;;;4146657;28;20046;-74
2022/09/14 02:01:27;;;;;;;7.47;4.78;;;30.70;99.90;;;;;;4146606;28;20145;-74
2022/09/14 02:03:41;;;;;;;5.68;4.57;;;30.80;99.90;;;;;;4144808;28;20070;-74
2022/09/14 02:05:59;;;;;;;6.45;4.35;;;30.90;99.90;;;;;;4145730;28;20053;-74
2022/09/14 02:08:07;;;;;;;8.10;4.38;;;30.90;99.90;;;;;;4145716;28;20061;-75
2022/09/14 02:10:16;;;;;;;6.90;4.85;;;30.90;99.90;;;;;;4146095;28;20034;-73
2022/09/14 02:12:21;;;;;;;5.63;4.75;;;31.00;99.90;;;;;;4145870;28;20058;-74
2022/09/14 02:14:26;;;;;;;7.32;4.22;;;30.90;99.90;;;;;;4161273;28;20057;-73
2022/09/14 02:16:42;;;;;;;6.72;5.03;;;30.90;99.90;;;;;;4155857;28;20132;-74
2022/09/14 02:18:47;;;;;;;9.25;4.80;;;30.90;99.90;;;;;;4143069;28;20149;-73
2022/09/14 02:21:01;;;;;;;6.85;4.85;;;30.90;99.90;;;;;;4141940;28;20112;-74
2022/09/14 02:23:09;;;;;;;5.65;4.80;;;30.70;99.90;;;;;;4140519;28;20608;-74
2022/09/14 02:25:14;;;;;;;7.95;4.90;;;30.60;99.90;;;;;;4141351;28;20104;-74
2022/09/14 02:27:22;;;;;;;7.40;5.00;;;30.60;99.90;;;;;;4156341;28;20099;-74
2022/09/14 02:29:33;;;;;;;6.10;4.13;;;30.70;99.90;;;;;;4143573;28;20056;-74
2022/09/14 02:32:00;;;;;;;6.75;4.93;;;30.70;99.90;;;;;;4146112;28;20050;-74
2022/09/14 02:34:34;;;;;;;6.07;4.68;;;30.70;99.90;;;;;;4146406;28;20074;-75
2022/09/14 02:37:16;;;;;;;11.57;7.07;;;30.40;99.90;;;;;;4145801;28;20513;-75
2022/09/14 02:39:50;;;;;;;7.47;6.03;;;30.40;99.90;;;;;;4147450;28;20057;-74
2022/09/14 02:42:28;;;;;;;7.10;5.38;;;30.70;99.90;;;;;;4127483;28;20501;-75
2022/09/14 02:44:47;;;;;;;7.75;5.40;;;30.70;99.90;;;;;;4145596;28;20069;-75
2022/09/14 02:47:02;;;;;;;6.90;5.30;;;30.70;99.90;;;;;;4145574;28;20495;-74
2022/09/14 02:49:32;;;;;;;7.18;5.90;;;30.70;99.90;;;;;;4144455;28;20137;-75
2022/09/14 02:51:57;;;;;;;7.55;5.50;;;30.80;99.90;;;;;;4146125;28;20050;-75
2022/09/14 02:54:15;;;;;;;5.97;5.07;;;30.70;99.90;;;;;;4176782;28;20051;-74
2022/09/14 02:56:21;;;;;;;5.90;5.30;;;30.70;99.90;;;;;;4111899;28;20059;-75
2022/09/14 02:58:32;;;;;;;5.15;4.65;;;30.70;99.90;;;;;;4159809;28;20056;-74
2022/09/14 03:00:39;;;;;;;6.30;4.70;;;30.70;99.90;;;;;;4136733;28;20049;-75
2022/09/14 03:02:45;;;;;;;8.95;5.20;;;30.80;99.90;;;;;;4145502;28;20496;-75
2022/09/14 03:04:52;;;;;;;7.97;5.13;;;30.80;99.90;;;;;;4156965;28;20049;-74
2022/09/14 03:06:58;;;;;;;6.30;5.15;;;30.80;99.90;;;;;;4145932;28;20038;-75
2022/09/14 03:09:04;;;;;;;7.20;5.45;;;30.70;99.90;;;;;;4145266;28;20112;-75
2022/09/14 03:11:08;;;;;;;5.95;5.13;;;30.80;99.90;;;;;;4159905;28;20049;-74
2022/09/14 03:13:18;;;;;;;8.73;4.70;;;30.80;99.90;;;;;;4145711;28;20049;-75
2022/09/14 03:15:25;;;;;;;6.30;4.93;;;30.90;99.90;;;;;;4160391;28;20087;-74
2022/09/14 03:17:29;;;;;;;8.07;5.28;;;30.90;99.90;;;;;;4140351;28;20535;-74
2022/09/14 03:19:34;;;;;;;6.18;4.40;;;31.10;99.90;;;;;;4141439;28;20400;-75
2022/09/14 03:21:38;;;;;;;7.22;4.93;;;31.20;99.90;;;;;;4145063;28;20505;-75
2022/09/14 03:23:47;;;;;;;6.18;4.93;;;31.30;99.90;;;;;;4159933;28;20153;-74
2022/09/14 03:25:54;;;;;;;5.00;4.43;;;31.50;99.90;;;;;;4145278;28;20073;-75
2022/09/14 03:28:00;;;;;;;5.78;4.38;;;31.70;99.90;;;;;;4145303;28;20046;-75
2022/09/14 03:30:05;;;;;;;9.30;4.85;;;31.80;99.90;;;;;;4145434;28;20046;-75
2022/09/14 03:32:12;;;;;;;6.80;4.10;;;31.90;99.90;;;;;;4145914;28;20485;-75
2022/09/14 03:34:18;;;;;;;6.95;4.47;;;31.90;99.90;;;;;;4144948;28;20049;-75
2022/09/14 03:36:23;;;;;;;6.53;4.70;;;31.90;99.90;;;;;;4145236;28;20050;-76
2022/09/14 03:38:29;;;;;;;6.53;4.93;;;32.00;99.90;;;;;;4145995;28;20053;-75
2022/09/14 03:40:38;;;;;;;7.97;4.65;;;32.00;99.90;;;;;;4173265;28;20060;-75
2022/09/14 03:42:47;;;;;;;7.75;4.40;;;31.90;99.90;;;;;;4176645;28;20106;-75
2022/09/14 03:44:53;;;;;;;7.00;4.40;;;32.10;99.90;;;;;;4143628;28;20058;-75
2022/09/14 03:47:04;;;;;;;7.95;4.28;;;32.20;99.90;;;;;;4145162;28;20050;-76
2022/09/14 03:49:08;;;;;;;5.85;4.25;;;31.80;99.90;;;;;;4148386;28;20046;-75
2022/09/14 03:51:15;;;;;;;6.43;4.25;;;31.40;99.90;;;;;;4144663;28;20496;-75
2022/09/14 03:53:21;;;;;;;6.10;4.05;;;31.40;99.90;;;;;;4179607;28;20068;-75
2022/09/14 03:55:26;;;;;;;6.30;4.22;;;31.40;99.90;;;;;;4148546;28;20069;-75
2022/09/14 03:57:33;;;;;;;5.93;4.20;;;31.40;99.90;;;;;;4149579;28;20129;-75
2022/09/14 03:59:39;;;;;;;6.07;4.25;;;31.60;99.90;;;;;;4162893;28;20057;-75
2022/09/14 04:01:46;;;;;;;5.80;4.57;;;31.60;99.90;;;;;;4165930;28;20045;-76
2022/09/14 04:03:51;;;;;;;5.88;4.63;;;31.70;99.90;;;;;;4163222;28;20512;-76
2022/09/14 04:05:58;;;;;;;4.88;4.38;;;31.90;99.90;;;;;;4160899;28;20058;-76
2022/09/14 04:08:03;;;;;;;5.10;4.45;;;32.10;99.90;;;;;;4165244;28;20053;-75
2022/09/14 04:10:09;;;;;;;5.55;4.57;;;32.10;99.90;;;;;;4147354;28;20557;-75
2022/09/14 04:12:14;;;;;;;6.05;4.20;;;32.10;99.90;;;;;;4164171;28;20476;-75
2022/09/14 04:14:19;;;;;;;8.38;4.10;;;32.00;99.90;;;;;;4147987;28;20442;-75
2022/09/14 04:16:25;;;;;;;5.75;3.97;;;32.20;99.90;;;;;;4148777;28;20416;-76
2022/09/14 04:18:29;;;;;;;6.10;3.80;;;32.40;99.90;;;;;;4163915;28;20507;-76
2022/09/14 04:20:34;;;;;;;9.43;4.07;;;32.40;99.90;;;;;;4148747;28;20133;-75
2022/09/14 04:22:40;;;;;;;6.70;4.38;;;32.20;99.90;;;;;;4163023;28;20085;-75
2022/09/14 04:24:47;;;;;;;5.47;3.90;;;32.10;99.90;;;;;;4162938;28;20104;-75
2022/09/14 04:26:51;;;;;;;4.78;3.58;;;31.90;99.90;;;;;;4147758;28;20067;-74
2022/09/14 04:28:58;;;;;;;5.60;3.75;;;31.90;99.90;;;;;;4149911;28;20085;-76
2022/09/14 04:31:04;;;;;;;6.43;4.22;;;32.10;99.90;;;;;;4164671;28;20148;-76
2022/09/14 04:33:09;;;;;;;5.57;4.45;;;32.20;99.90;;;;;;4164379;28;20049;-76
2022/09/14 04:35:15;;;;;;;5.75;3.65;;;32.40;99.90;;;;;;4147453;28;20125;-75
2022/09/14 04:37:22;;;;;;;4.55;3.83;;;32.50;99.90;;;;;;4147719;28;20141;-75
2022/09/14 04:39:26;;;;;;;5.97;3.30;;;32.60;98.50;;;;;;4162723;28;20080;-75
2022/09/14 04:41:33;;;;;;;3.63;3.25;;;32.60;98.90;;;;;;4146985;28;20054;-74
2022/09/14 04:43:40;;;;;;;4.78;3.35;;;32.50;98.00;;;;;;4147377;28;20041;-75
2022/09/14 04:45:46;;;;;;;4.70;3.70;;;32.30;98.60;;;;;;4146902;28;20054;-75
2022/09/14 04:47:54;;;;;;;5.15;4.00;;;32.40;99.20;;;;;;4147832;28;20041;-75
2022/09/14 04:50:02;;;;;;;4.55;3.53;;;32.40;99.50;;;;;;4147015;28;20084;-75
2022/09/14 04:52:08;;;;;;;8.70;3.83;;;32.40;99.90;;;;;;4164076;28;20045;-75
2022/09/14 04:54:16;;;;;;;5.95;3.83;;;32.50;99.90;;;;;;4163251;28;20136;-75
2022/09/14 04:56:23;;;;;;;4.93;3.90;;;32.40;99.90;;;;;;4162492;28;20125;-74
2022/09/14 04:58:28;;;;;;;5.53;4.10;;;32.40;99.90;;;;;;4146578;28;20096;-74
2022/09/14 05:00:34;;;;;;;5.50;3.97;;;32.40;99.90;;;;;;4146199;28;20037;-75
2022/09/14 05:02:41;;;;;;;4.55;3.85;;;32.40;99.90;;;;;;4142218;28;20045;-75
2022/09/14 05:04:46;;;;;;;4.07;3.60;;;32.30;99.90;;;;;;4161755;28;20057;-74
2022/09/14 05:06:54;;;;;;;6.85;3.92;;;32.20;99.90;;;;;;4146553;28;20050;-74
2022/09/14 05:09:03;;;;;;;7.13;3.70;;;31.90;99.70;;;;;;4160962;28;20057;-73
2022/09/14 05:11:08;;;;;;;4.97;3.28;;;31.60;99.90;;;;;;4145314;28;20057;-75
2022/09/14 05:13:15;;;;;;;5.65;3.60;;;31.50;99.80;;;;;;4145137;28;20077;-75
2022/09/14 05:15:21;;;;;;;4.90;2.90;;;31.40;99.90;;;;;;4176346;28;20037;-75
2022/09/14 05:17:26;;;;;;;3.67;2.45;;;31.10;98.90;;;;;;4146967;28;20049;-76
2022/09/14 05:19:32;;;;;;;7.63;2.47;;;31.00;99.00;;;;;;4143164;28;20523;-75
2022/09/14 05:21:38;;;;;;;2.63;2.15;;;30.90;98.30;;;;;;4146426;28;20084;-75
2022/09/14 05:23:44;;;;;;;2.80;2.20;;;30.80;97.70;;;;;;4144914;28;20416;-75
2022/09/14 05:25:54;;;;;;;5.13;2.50;;;30.60;98.40;;;;;;4176962;28;20049;-75
2022/09/14 05:27:59;;;;;;;2.47;2.20;;;30.70;98.00;;;;;;4143916;28;20057;-75
2022/09/14 05:30:04;;;;;;;6.82;2.65;;;30.80;98.10;;;;;;4143188;28;20108;-75
2022/09/14 05:32:10;;;;;;;3.58;2.13;;;30.90;98.10;;;;;;4144152;28;20169;-75
2022/09/14 05:34:17;;;;;;;7.63;2.25;;;30.90;97.90;;;;;;4144420;28;20057;-76
2022/09/14 05:36:21;;;;;;;2.75;1.70;;;30.80;97.60;;;;;;4147629;28;20088;-77
2022/09/14 05:38:32;;;;;;;2.10;1.70;;;30.90;97.50;;;;;;4146029;28;20400;-76
2022/09/14 05:40:37;;;;;;;4.15;1.63;;;30.80;97.40;;;;;;4130018;28;20058;-76
2022/09/14 05:42:41;;;;;;;4.28;1.70;;;30.90;97.20;;;;;;4148838;28;20110;-77
2022/09/14 05:44:47;;;;;;;2.97;1.90;;;30.80;97.30;;;;;;4176181;28;20049;-76
2022/09/14 05:46:55;;;;;;;6.60;2.03;;;30.90;98.30;;;;;;4146136;28;20044;-75
2022/09/14 05:48:59;;;;;;;3.80;2.60;;;30.80;99.30;;;;;;4144958;28;20133;-75
2022/09/14 05:51:06;;;;;;;3.88;2.58;;;30.80;99.80;;;;;;4144891;28;20065;-75
2022/09/14 05:53:12;;;;;;;6.55;3.15;;;30.60;99.90;;;;;;4159739;28;20107;-75
2022/09/14 05:55:17;;;;;;;8.50;4.15;;;30.60;99.90;;;;;;4144382;28;20532;-74
2022/09/14 05:57:23;;;;;;;7.90;3.58;;;30.50;99.90;;;;;;4145950;28;20058;-74
2022/09/14 05:59:31;;;;;;;10.77;4.65;;;30.40;99.90;;;;;;4141943;28;20046;-74
2022/09/14 06:01:35;;;;;;;8.98;2.90;;;30.50;99.90;;;;;;4146032;28;20408;-74
2022/09/14 06:03:41;;;;;;;6.00;3.15;;;30.50;99.90;;;;;;4145634;28;20532;-74
2022/09/14 06:05:48;;;;;;;6.65;3.13;;;30.50;99.90;;;;;;4145697;28;20509;-75
2022/09/14 06:07:55;;;;;;;3.33;2.80;;;30.60;99.90;;;;;;4146147;28;20057;-75
2022/09/14 06:10:01;;;;;;;4.05;2.90;;;30.60;99.90;;;;;;4145572;28;20042;-74
2022/09/14 06:12:07;;;;;;;9.38;2.80;;;30.60;99.90;;;;;;4160902;28;20037;-74
2022/09/14 06:14:11;;;;;;;5.30;3.00;;;30.60;99.90;;;;;;4145694;28;20069;-74
2022/09/14 06:16:18;;;;;;;3.70;3.10;;;30.70;99.90;;;;;;4145756;28;20520;-73
2022/09/14 06:18:24;;;;;;;6.25;3.20;;;30.70;99.90;;;;;;4145378;28;20390;-73
2022/09/14 06:20:28;;;;;;;11.18;3.55;;;30.80;99.90;;;;;;4145365;28;20057;-73
2022/09/14 06:22:34;;;;;;;4.75;3.47;;;30.80;99.90;;;;;;4145603;28;20160;-73
2022/09/14 06:24:41;;;;;;;6.68;2.90;;;30.80;99.90;;;;;;4145705;28;20065;-73
2022/09/14 06:26:45;;;;;;;3.60;2.90;;;30.90;99.90;;;;;;4144979;28;20504;-73
2022/09/14 06:28:52;;;;;;;6.05;2.50;;;30.90;99.90;;;;;;4160368;28;20041;-72
2022/09/14 06:30:58;;;;;;;6.43;2.78;;;30.90;99.90;;;;;;4145814;28;20045;-72
2022/09/14 06:33:04;;;;;;;3.60;2.65;;;31.00;99.90;;;;;;4145571;28;20485;-73
2022/09/14 06:35:11;;;;;;;3.15;2.30;;;31.00;99.60;;;;;;4160448;28;20080;-73
2022/09/14 06:37:17;;;;;;;3.67;2.58;;;31.10;98.80;;;;;;4145120;28;20081;-73
2022/09/14 06:39:23;;;;;;;4.80;2.30;;;31.10;98.80;;;;;;4145236;28;20060;-74
2022/09/14 06:41:29;;;;;;;4.85;2.42;;;31.20;99.10;;;;;;4144747;28;20049;-73
2022/09/14 06:43:41;;;;;;;8.32;2.80;;;31.20;99.10;;;;;;4145390;28;20104;-72
2022/09/14 06:46:02;;;;;;;3.38;2.40;;;31.20;98.80;;;;;;4158299;28;20558;-72
2022/09/14 06:48:09;;;;;;;3.53;2.53;;;31.20;99.20;;;;;;4143802;28;20089;-72
2022/09/14 06:50:15;;;;;;;4.97;2.50;;;31.20;98.50;;;;;;4175622;28;20040;-72
2022/09/14 06:52:19;;;;;;;3.25;2.42;;;31.20;98.50;;;;;;4145191;28;20413;-73
2022/09/14 06:54:26;;;;;;;4.70;2.40;;;31.20;98.90;;;;;;4144973;28;20038;-73
2022/09/14 06:56:33;;;;;;;4.97;2.40;;;31.30;99.30;;;;;;4144336;28;20045;-74
2022/09/14 06:58:38;;;;;;;3.72;2.20;;;31.40;99.30;;;;;;4145127;28;20132;-74
2022/09/14 07:00:45;;;;;;;4.65;3.00;;;31.50;99.40;;;;;;4144718;28;21056;-74
2022/09/14 07:02:51;;;;;;;5.70;3.05;;;31.50;99.50;;;;;;4140979;28;20069;-73
2022/09/14 07:05:02;;;;;;;4.70;2.95;;;31.50;99.60;;;;;;4144540;28;20054;-73
2022/09/14 07:07:09;;;;;;;4.47;3.28;;;31.50;99.90;;;;;;4145315;28;20074;-73
2022/09/14 07:09:19;;;;;;;5.72;3.30;;;31.50;99.90;;;;;;4143716;28;20057;-72
2022/09/14 07:11:25;;;;;;;4.85;3.08;;;31.60;99.90;;;;;;4144844;28;20533;-73
2022/09/14 07:13:32;;;;;;;7.88;3.53;;;31.60;99.90;;;;;;4142175;28;20073;-72
2022/09/14 07:15:38;;;;;;;7.65;3.58;;;31.60;99.90;;;;;;4145139;28;20121;-72
2022/09/14 07:17:46;;;;;;;5.90;3.72;;;31.60;99.90;;;;;;4160002;28;20535;-73
2022/09/14 07:19:52;;;;;;;6.88;4.45;;;31.60;99.90;;;;;;4159713;28;20467;-72
2022/09/14 07:22:01;;;;;;;6.65;5.47;;;31.50;99.90;;;;;;4144047;28;20054;-73
2022/09/14 07:24:05;;;;;;;5.22;4.30;;;31.50;99.90;;;;;;4145251;28;20565;-72
2022/09/14 07:26:13;;;;;;;7.53;5.10;;;31.60;99.90;;;;;;4143417;28;20050;-72
2022/09/14 07:28:19;;;;;;;7.07;5.63;;;31.50;99.90;;;;;;4158646;28;20057;-73
2022/09/14 07:30:25;;;;;;;7.28;4.63;;;31.50;99.90;;;;;;4144728;28;20061;-73
2022/09/14 07:32:32;;;;;;;4.25;3.45;;;31.60;99.90;;;;;;4140725;28;20160;-73
2022/09/14 07:34:40;;;;;;;5.75;3.33;;;31.40;99.90;;;;;;4144900;28;20428;-73
2022/09/14 07:36:45;;;;;;;3.53;2.42;;;31.30;99.90;;;;;;4144303;28;20056;-74
2022/09/14 07:38:52;;;;;;;3.90;2.20;;;31.20;99.90;;;;;;4144679;28;20056;-74
2022/09/14 07:40:58;;;;;;;2.63;1.90;;;31.20;99.80;;;;;;4175970;28;20052;-75
2022/09/14 07:43:03;;;;;;;1.70;1.60;;;31.00;99.20;;;;;;4144410;28;20535;-74
2022/09/14 07:45:09;;;;;;;4.40;1.70;;;31.10;99.20;;;;;;4140845;28;20559;-74
2022/09/14 07:47:15;;;;;;;5.07;2.00;;;31.10;99.20;;;;;;4144302;28;20129;-73
2022/09/14 07:49:29;;;;;;;3.33;1.92;;;31.10;99.00;;;;;;4144428;28;20080;-73
2022/09/14 07:51:47;;;;;;;3.72;1.65;;;31.10;99.10;;;;;;4144352;28;20042;-76
2022/09/14 07:53:53;;;;;;;3.08;1.80;;;31.10;99.30;;;;;;4142906;28;20057;-75
2022/09/14 07:56:00;;;;;;;3.17;1.83;;;31.10;99.30;;;;;;4144823;28;20137;-75
2022/09/14 07:58:06;;;;;;;2.83;2.00;;;31.10;99.20;;;;;;4141988;28;20056;-75
2022/09/14 08:00:13;;;;;;;3.13;2.08;;;31.00;99.10;;;;;;4138029;28;20497;-75
2022/09/14 08:02:18;;;;;;;3.17;1.90;;;31.00;99.10;;;;;;4144461;28;20158;-74
2022/09/14 08:04:30;;;;;;;3.85;2.38;;;31.00;99.20;;;;;;4139054;28;20137;-74
2022/09/14 08:06:45;;;;;;;3.58;2.10;;;31.00;99.70;;;;;;4144138;28;20050;-75
2022/09/14 08:08:50;;;;;;;2.55;2.00;;;31.10;99.40;;;;;;4144178;28;20057;-75
2022/09/14 08:11:13;;;;;;;3.58;2.30;;;31.10;99.40;;;;;;4144506;28;20045;-74
2022/09/14 08:13:17;;;;;;;8.60;2.92;;;31.10;99.40;;;;;;4144677;28;20045;-74
2022/09/14 08:15:22;;;;;;;5.63;2.60;;;31.10;99.50;;;;;;4158599;28;20124;-74
2022/09/14 08:17:32;;;;;;;5.22;2.85;;;31.10;99.40;;;;;;4144539;28;20048;-74
2022/09/14 08:19:40;;;;;;;4.88;2.83;;;31.10;99.50;;;;;;4144225;28;20055;-74
2022/09/14 08:21:44;;;;;;;7.53;3.38;;;31.10;99.50;;;;;;4144254;28;20108;-74
2022/09/14 08:23:49;;;;;;;4.78;2.78;;;31.10;99.40;;;;;;4126170;28;20117;-74
2022/09/14 08:25:54;;;;;;;4.35;2.97;;;31.10;99.50;;;;;;4143170;28;20073;-72
2022/09/14 08:27:58;;;;;;;5.95;2.72;;;31.10;99.30;;;;;;4142818;28;20497;-75
2022/09/14 08:30:05;;;;;;;4.25;2.42;;;31.00;99.30;;;;;;4141193;28;20101;-74
2022/09/14 08:32:15;;;;;;;4.37;2.40;;;31.00;99.20;;;;;;4143559;28;20049;-73
2022/09/14 08:34:19;;;;;;;4.10;2.63;;;31.00;99.30;;;;;;4143747;28;20302;-73
2022/09/14 08:36:26;;;;;;;4.95;2.55;;;31.00;99.50;;;;;;4146389;28;20038;-73
2022/09/14 08:38:32;;;;;;;6.22;2.97;;;31.10;99.50;;;;;;4141886;28;20080;-73
2022/09/14 08:40:45;;;;;;;7.35;2.80;;;31.10;99.70;;;;;;4146979;28;20790;-72
2022/09/14 08:42:49;;;;;;;3.63;2.70;;;31.20;99.90;;;;;;4147128;28;20046;-71
2022/09/14 08:44:56;;;;;;;7.25;2.83;;;31.10;99.80;;;;;;4146760;28;20519;-74
2022/09/14 08:47:13;;;;;;;11.60;4.35;;;31.10;99.90;;;;;;4178230;28;20124;-74
2022/09/14 08:49:28;;;;;;;8.15;3.60;;;31.10;99.90;;;;;;4146896;28;20073;-74
2022/09/14 08:51:35;;;;;;;7.78;3.92;;;31.10;99.90;;;;;;4147012;28;20049;-75
2022/09/14 08:53:46;;;;;;;8.38;3.67;;;31.10;99.80;;;;;;4146496;28;20096;-74
2022/09/14 08:56:08;;;;;;;5.45;3.50;;;31.00;99.40;;;;;;4174918;28;20049;-74
2022/09/14 08:58:47;;;;;;;6.18;3.03;;;31.00;99.40;;;;;;4144886;28;20061;-74
2022/09/14 09:00:56;;;;;;;3.33;2.40;;;31.00;98.90;;;;;;4161859;28;20041;-75
2022/09/14 09:03:31;;;;;;;7.32;2.50;;;31.00;98.30;;;;;;4146742;28;20045;-75
2022/09/14 09:06:08;;;;;;;6.22;2.72;;;31.00;98.60;;;;;;4146556;28;20037;-74
2022/09/14 09:08:27;;;;;;;7.05;4.47;;;31.00;99.30;;;;;;4147313;28;20060;-75
2022/09/14 09:10:32;;;;;;;9.35;4.93;;;31.00;99.70;;;;;;4146703;28;20473;-74
2022/09/14 09:12:44;;;;;;;10.25;4.80;;;31.00;99.60;;;;;;4147174;28;20878;-74
2022/09/14 09:14:57;;;;;;;9.55;4.47;;;30.90;99.80;;;;;;4146934;28;20168;-75
2022/09/14 09:17:11;;;;;;;7.70;4.45;;;30.90;99.90;;;;;;4146438;28;20050;-74
2022/09/14 09:19:37;;;;;;;10.18;4.70;;;30.90;99.90;;;;;;4146877;28;20545;-75
2022/09/14 09:21:46;;;;;;;10.38;5.63;;;30.90;99.90;;;;;;4147022;28;20054;-74
2022/09/14 09:23:50;;;;;;;6.05;3.83;;;31.00;99.90;;;;;;4147135;28;20099;-75
2022/09/14 09:26:29;;;;;;;6.80;4.10;;;31.10;99.90;;;;;;4145797;28;20052;-76
2022/09/14 09:28:34;;;;;;;7.00;3.97;;;31.10;99.90;;;;;;4145806;28;20050;-74
2022/09/14 09:30:40;;;;;;;7.78;4.85;;;31.10;99.90;;;;;;4144425;28;20078;-75
2022/09/14 09:32:56;;;;;;;11.57;6.00;;;31.00;99.90;;;;;;4143713;28;20133;-73
2022/09/14 09:35:26;;;;;;;9.75;6.32;;;30.90;99.90;;;;;;4142706;28;20606;-73
2022/09/14 09:37:41;;;;;;;10.77;5.50;;;31.00;99.90;;;;;;4140801;28;20096;-74
2022/09/14 09:39:49;;;;;;;9.05;4.68;;;31.00;99.90;;;;;;4144240;28;20156;-73
2022/09/14 09:42:05;;;;;;;6.90;4.60;;;31.00;99.90;;;;;;4142876;28;20089;-73
2022/09/14 09:44:10;;;;;;;6.85;3.90;;;31.00;99.80;;;;;;4158605;28;20080;-73
2022/09/14 09:46:17;;;;;;;6.15;3.10;;;31.00;99.60;;;;;;4140478;28;20045;-73
2022/09/14 09:48:26;;;;;;;4.28;2.85;;;31.00;99.50;;;;;;4143897;28;20060;-72
2022/09/14 09:50:30;;;;;;;5.40;3.20;;;30.90;99.30;;;;;;4143320;28;20060;-74
2022/09/14 09:52:34;;;;;;;5.63;3.00;;;30.80;99.70;;;;;;4143615;28;20058;-71
2022/09/14 09:54:41;;;;;;;5.50;3.33;;;30.90;99.80;;;;;;4143627;28;20053;-73
2022/09/14 09:56:56;;;;;;;4.95;3.70;;;30.90;99.70;;;;;;4156841;28;20431;-73
2022/09/14 09:59:28;;;;;;;5.55;3.38;;;30.90;99.90;;;;;;4142486;28;20060;-73
2022/09/14 10:01:34;;;;;;;4.57;2.90;;;30.90;99.90;;;;;;4143094;28;20133;-73
2022/09/14 10:03:39;;;;;;;5.78;3.38;;;30.90;99.90;;;;;;4142063;28;20501;-73
2022/09/14 10:05:46;;;;;;;3.83;3.15;;;30.80;99.90;;;;;;4143065;28;20049;-74
2022/09/14 10:08:04;;;;;;;4.75;3.55;;;30.70;99.90;;;;;;4142078;28;20132;-74
2022/09/14 10:10:14;;;;;;;6.50;4.10;;;30.80;99.90;;;;;;4172729;28;20072;-74
2022/09/14 10:12:21;;;;;;;8.48;4.18;;;30.80;99.90;;;;;;4158994;28;20088;-74
2022/09/14 10:14:30;;;;;;;6.47;3.92;;;30.80;99.90;;;;;;4157945;28;20045;-74
2022/09/14 10:16:38;;;;;;;5.60;3.20;;;30.80;99.90;;;;;;4143300;28;20134;-73
2022/09/14 10:18:47;;;;;;;5.78;3.45;;;30.80;99.90;;;;;;4156623;28;20060;-74
2022/09/14 10:21:14;;;;;;;6.78;3.47;;;30.70;99.90;;;;;;4142592;28;20054;-74
2022/09/14 10:23:26;;;;;;;9.98;3.65;;;30.80;99.90;;;;;;4141709;28;20104;-75
2022/09/14 10:25:32;;;;;;;6.40;3.85;;;30.60;99.90;;;;;;4157686;28;20100;-74
2022/09/14 10:27:57;;;;;;;8.55;3.58;;;30.60;99.90;;;;;;4143361;28;20865;-74
2022/09/14 10:30:04;;;;;;;8.73;3.97;;;30.60;99.90;;;;;;4141054;28;20050;-75
2022/09/14 10:32:22;;;;;;;10.45;3.88;;;30.70;99.90;;;;;;4124685;28;20046;-75
2022/09/14 10:34:29;;;;;;;7.05;4.60;;;30.70;99.90;;;;;;4142199;28;20103;-75
2022/09/14 10:36:37;;;;;;;7.43;4.00;;;30.60;99.90;;;;;;4141995;28;20054;-74
2022/09/14 10:39:23;;;;;;;7.97;4.47;;;30.60;99.90;;;;;;4142002;28;20072;-75
2022/09/14 10:41:53;;;;;;;9.52;4.95;;;30.60;99.90;;;;;;4157717;28;20148;-74
2022/09/14 10:44:32;;;;;;;14.50;7.45;;;30.50;99.90;;;;;;4156721;28;20053;-74
2022/09/14 10:46:47;;;;;;;10.75;7.63;;;30.50;99.90;;;;;;4141436;28;20468;-75
2022/09/14 10:49:13;;;;;;;11.63;7.30;;;30.50;99.90;;;;;;4144681;28;20041;-74
2022/09/14 10:51:52;;;;;;;10.38;6.20;;;30.30;99.90;;;;;;4142282;28;20038;-74
2022/09/14 10:54:36;;;;;;;9.18;5.18;;;30.20;99.90;;;;;;4142854;28;20516;-74
2022/09/14 10:57:05;;;;;;;11.13;5.72;;;30.10;99.90;;;;;;4157483;28;20041;-74
2022/09/14 10:59:37;;;;;;;11.60;6.05;;;30.20;99.90;;;;;;4141178;28;20104;-73
2022/09/14 11:02:25;;;;;;;11.85;5.88;;;30.20;99.90;;;;;;4141877;28;20064;-75
2022/09/14 11:05:16;;;;;;;11.30;5.97;;;30.20;99.90;;;;;;4139993;28;20116;-76
2022/09/14 11:07:55;;;;;;;15.70;6.53;;;30.20;99.90;;;;;;4144540;28;20537;-73
2022/09/14 11:10:27;;;;;;;13.45;5.70;;;30.20;99.90;;;;;;4143698;28;20059;-75
2022/09/14 11:13:04;;;;;;;12.48;6.65;;;30.20;99.90;;;;;;4143783;28;20112;-75
2022/09/14 11:15:29;;;;;;;10.68;6.80;;;30.20;99.90;;;;;;4142222;28;20104;-74
2022/09/14 11:18:13;;;;;;;12.88;7.63;;;30.20;99.90;;;;;;4144244;28;20046;-75
2022/09/14 11:20:48;;;;;;;16.27;8.63;;;30.20;99.90;;;;;;4144419;28;20432;-74
2022/09/14 11:23:25;;;;;;;18.45;8.98;;;30.10;99.90;;;;;;4144261;28;20042;-75
2022/09/14 11:26:00;;;;;;;15.73;8.07;;;30.10;99.90;;;;;;4143210;28;20057;-75